createdAt,value
2023-04-02T00:01:38.698Z,98182.81
2023-04-02T00:04:23.477Z,98184.41
2023-04-02T00:06:54.386Z,98181.22
2023-04-02T00:09:32.901Z,98179.06
2023-04-02T00:12:15.448Z,98193.09
2023-04-02T00:14:47.934Z,98190.69
2023-04-02T00:17:16.423Z,98197.03
2023-04-02T00:19:46.850Z,98198.16
2023-04-02T00:22:17.548Z,98196.03
2023-04-02T00:24:45.499Z,98201.03
2023-04-02T00:27:15.696Z,98205.56
2023-04-02T00:29:48.011Z,98198.16
2023-04-02T00:32:19.839Z,98209.03
2023-04-02T00:34:47.876Z,98201.59
2023-04-02T00:37:23.833Z,98196.03
2023-04-02T00:39:54.230Z,98205.00
2023-04-02T00:42:25.394Z,98206.53
2023-04-02T00:44:54.890Z,98200.28
2023-04-02T00:47:24.520Z,98203.16
2023-04-02T00:49:56.979Z,98206.56
2023-04-02T00:52:27.003Z,98203.16
2023-04-02T00:55:00.433Z,98214.25
2023-04-02T00:57:29.989Z,98217.13
2023-04-02T00:59:59.820Z,98223.47
2023-04-02T01:02:29.598Z,98211.00
2023-04-02T01:04:58.677Z,98214.19
2023-04-02T01:07:34.413Z,98204.94
2023-04-02T01:10:11.928Z,98215.50
2023-04-02T01:12:49.075Z,98213.91
2023-04-02T01:15:19.529Z,98215.47
2023-04-02T01:17:59.573Z,98205.69
2023-04-02T01:20:42.293Z,98211.53
2023-04-02T01:23:13.597Z,98205.47
2023-04-02T01:25:44.912Z,98208.09
2023-04-02T01:28:19.851Z,98212.59
2023-04-02T01:30:52.507Z,98207.53
2023-04-02T01:33:22.023Z,98220.25
2023-04-02T01:35:53.421Z,98222.09
2023-04-02T01:38:23.736Z,98218.16
2023-04-02T01:40:55.915Z,98216.84
2023-04-02T01:43:27.598Z,98215.94
2023-04-02T01:45:58.316Z,98205.69
2023-04-02T01:48:30.287Z,98210.16
2023-04-02T01:50:59.645Z,98202.81
2023-04-02T01:53:29.829Z,98206.47
2023-04-02T01:55:59.585Z,98210.16
2023-04-02T01:58:29.096Z,98206.97
2023-04-02T02:01:00.214Z,98213.09
2023-04-02T02:03:28.424Z,98207.59
2023-04-02T02:05:56.817Z,98207.53
2023-04-02T02:08:32.872Z,98216.56
2023-04-02T02:11:00.961Z,98205.47
2023-04-02T02:13:28.988Z,98206.25
2023-04-02T02:16:00.263Z,98204.97
2023-04-02T02:18:29.361Z,98202.63
2023-04-02T02:20:58.711Z,98201.63
2023-04-02T02:23:29.555Z,98215.09
2023-04-02T02:25:57.744Z,98220.38
2023-04-02T02:28:27.747Z,98207.97
2023-04-02T02:30:59.196Z,98212.47
2023-04-02T02:33:30.149Z,98211.69
2023-04-02T02:36:01.218Z,98224.09
2023-04-02T02:38:45.748Z,98212.47
2023-04-02T02:41:17.867Z,98222.28
2023-04-02T02:43:47.981Z,98212.97
2023-04-02T02:46:18.314Z,98219.34
2023-04-02T02:48:48.323Z,98220.13
2023-04-02T02:51:22.186Z,98219.31
2023-04-02T02:53:52.246Z,98217.75
2023-04-02T02:56:22.910Z,98219.59
2023-04-02T02:58:52.418Z,98219.53
2023-04-02T03:01:20.729Z,98219.78
2023-04-02T03:03:53.907Z,98223.22
2023-04-02T03:06:22.358Z,98226.16
2023-04-02T03:08:52.494Z,98231.19
2023-04-02T03:11:25.384Z,98236.13
2023-04-02T03:13:56.283Z,98239.56
2023-04-02T03:16:27.651Z,98245.34
2023-04-02T03:18:59.864Z,98247.25
2023-04-02T03:21:29.626Z,98240.28
2023-04-02T03:23:59.755Z,98251.09
2023-04-02T03:27:16.844Z,98248.97
2023-04-02T03:29:49.691Z,98241.78
2023-04-02T03:32:18.885Z,98248.97
2023-04-02T03:34:50.754Z,98243.97
2023-04-02T03:37:21.382Z,98243.38
2023-04-02T03:39:53.256Z,98246.22
2023-04-02T03:42:23.041Z,98250.69
2023-04-02T03:44:53.590Z,98250.44
2023-04-02T03:47:29.056Z,98248.03
2023-04-02T03:50:01.167Z,98251.28
2023-04-02T03:52:30.398Z,98248.94
2023-04-02T03:55:00.197Z,98245.47
2023-04-02T03:57:32.764Z,98247.03
2023-04-02T04:00:05.078Z,98249.09
2023-04-02T04:02:41.299Z,98244.59
2023-04-02T04:05:21.071Z,98248.28
2023-04-02T04:07:51.411Z,98244.84
2023-04-02T04:10:21.354Z,98237.94
2023-04-02T04:12:50.176Z,98238.19
2023-04-02T04:15:22.022Z,98249.03
2023-04-02T04:17:55.372Z,98249.72
2023-04-02T04:20:28.291Z,98259.25
2023-04-02T04:22:58.204Z,98266.41
2023-04-02T04:25:29.661Z,98274.81
2023-04-02T04:28:05.717Z,98276.69
2023-04-02T04:30:36.524Z,98269.47
2023-04-02T04:33:06.707Z,98279.78
2023-04-02T04:35:39.222Z,98275.28
2023-04-02T04:38:09.121Z,98277.94
2023-04-02T04:40:38.810Z,98279.31
2023-04-02T04:43:08.839Z,98278.75
2023-04-02T04:45:41.221Z,98282.19
2023-04-02T04:48:11.969Z,98289.06
2023-04-02T04:50:47.698Z,98291.72
2023-04-02T04:53:17.718Z,98286.94
2023-04-02T04:55:46.359Z,98289.31
2023-04-02T04:58:18.130Z,98296.50
2023-04-02T05:00:52.459Z,98289.53
2023-04-02T05:03:25.686Z,98284.81
2023-04-02T05:05:55.417Z,98286.63
2023-04-02T05:08:27.377Z,98286.88
2023-04-02T05:10:58.674Z,98288.53
2023-04-02T05:13:31.197Z,98293.25
2023-04-02T05:16:04.901Z,98281.31
2023-04-02T05:18:34.374Z,98294.81
2023-04-02T05:21:07.283Z,98292.19
2023-04-02T05:23:36.478Z,98295.34
2023-04-02T05:26:08.066Z,98308.00
2023-04-02T05:28:38.740Z,98298.72
2023-04-02T05:31:08.659Z,98310.06
2023-04-02T05:33:37.955Z,98305.91
2023-04-02T05:36:09.421Z,98309.94
2023-04-02T05:38:38.739Z,98307.28
2023-04-02T05:41:08.174Z,98304.63
2023-04-02T05:43:38.365Z,98308.06
2023-04-02T05:46:15.234Z,98310.56
2023-04-02T05:48:44.733Z,98311.00
2023-04-02T05:51:18.788Z,98309.94
2023-04-02T05:53:49.612Z,98313.78
2023-04-02T05:56:20.305Z,98313.63
2023-04-02T05:58:49.869Z,98316.06
2023-04-02T06:01:33.761Z,98317.22
2023-04-02T06:04:06.053Z,98312.66
2023-04-02T06:06:47.528Z,98309.84
2023-04-02T06:09:19.380Z,98303.38
2023-04-02T06:11:50.472Z,98308.53
2023-04-02T06:14:19.056Z,98313.44
2023-04-02T06:16:47.669Z,98309.25
2023-04-02T06:19:19.822Z,98314.19
2023-04-02T06:21:51.048Z,98317.56
2023-04-02T06:24:22.303Z,98316.25
2023-04-02T06:26:52.849Z,98321.81
2023-04-02T06:29:26.566Z,98312.28
2023-04-02T06:31:56.681Z,98314.69
2023-04-02T06:34:25.627Z,98308.69
2023-04-02T06:36:58.777Z,98310.53
2023-04-02T06:39:27.648Z,98306.81
2023-04-02T06:42:01.995Z,98313.22
2023-04-02T06:44:33.072Z,98304.56
2023-04-02T06:47:03.586Z,98304.56
2023-04-02T06:49:35.701Z,98310.84
2023-04-02T06:52:07.778Z,98309.56
2023-04-02T06:54:35.831Z,98315.69
2023-04-02T06:57:05.244Z,98322.19
2023-04-02T06:59:33.299Z,98326.31
2023-04-02T07:02:03.843Z,98320.41
2023-04-02T07:04:31.789Z,98326.31
2023-04-02T07:06:59.871Z,98327.59
2023-04-02T07:09:29.476Z,98330.94
2023-04-02T07:11:57.508Z,98336.13
2023-04-02T07:14:25.603Z,98319.88
2023-04-02T07:16:53.694Z,98325.47
2023-04-02T07:19:22.479Z,98341.22
2023-04-02T07:21:50.569Z,98329.38
2023-04-02T07:24:18.737Z,98344.09
2023-04-02T07:26:48.919Z,98341.25
2023-04-02T07:29:17.569Z,98348.72
2023-04-02T07:31:48.128Z,98345.94
2023-04-02T07:34:16.272Z,98349.00
2023-04-02T07:36:44.256Z,98343.94
2023-04-02T07:39:12.536Z,98354.19
2023-04-02T07:41:54.919Z,98346.97
2023-04-02T07:44:22.918Z,98346.72
2023-04-02T07:46:50.941Z,98354.53
2023-04-02T07:49:18.969Z,98353.97
2023-04-02T07:51:47.559Z,98344.41
2023-04-02T07:54:15.628Z,98354.94
2023-04-02T07:56:43.741Z,98351.56
2023-04-02T07:59:13.300Z,98353.22
2023-04-02T08:01:43.212Z,98352.78
2023-04-02T08:04:19.322Z,98363.28
2023-04-02T08:06:48.209Z,98368.44
2023-04-02T08:09:16.239Z,98364.44
2023-04-02T08:11:44.724Z,98356.19
2023-04-02T08:14:14.076Z,98363.75
2023-04-02T08:16:46.196Z,98364.16
2023-04-02T08:19:17.226Z,98365.88
2023-04-02T08:21:45.116Z,98361.94
2023-04-02T08:24:13.234Z,98366.47
2023-04-02T08:26:41.968Z,98369.13
2023-04-02T08:29:10.919Z,98366.47
2023-04-02T08:31:40.420Z,98366.47
2023-04-02T08:34:08.462Z,98362.44
2023-04-02T08:36:37.921Z,98362.63
2023-04-02T08:39:06.799Z,98363.13
2023-04-02T08:41:38.013Z,98366.84
2023-04-02T08:44:12.396Z,98361.19
2023-04-02T08:46:45.697Z,98359.16
2023-04-02T08:49:15.745Z,98365.81
2023-04-02T08:51:43.991Z,98370.63
2023-04-02T08:54:17.634Z,98360.34
2023-04-02T08:56:52.368Z,98359.50
2023-04-02T08:59:25.972Z,98359.28
2023-04-02T09:01:59.234Z,98361.94
2023-04-02T09:04:27.865Z,98363.84
2023-04-02T09:06:57.284Z,98363.84
2023-04-02T09:09:28.751Z,98369.81
2023-04-02T09:12:01.498Z,98364.31
2023-04-02T09:14:34.214Z,98369.47
2023-04-02T09:17:05.343Z,98374.31
2023-04-02T09:19:35.243Z,98374.38
2023-04-02T09:22:10.302Z,98369.03
2023-04-02T09:24:38.936Z,98372.16
2023-04-02T09:27:18.669Z,98370.13
2023-04-02T09:29:47.506Z,98366.88
2023-04-02T09:36:18.960Z,98377.50
2023-04-02T09:39:06.521Z,98378.38
2023-04-02T09:41:36.697Z,98378.47
2023-04-02T09:44:15.752Z,98375.63
2023-04-02T09:46:51.428Z,98380.00
2023-04-02T09:49:20.156Z,98386.91
2023-04-02T09:52:07.011Z,98372.81
2023-04-02T09:54:41.529Z,98369.06
2023-04-02T09:57:18.710Z,98380.69
2023-04-02T09:59:46.763Z,98379.81
2023-04-02T10:02:25.648Z,98378.34
2023-04-02T10:04:53.922Z,98373.13
2023-04-02T10:07:35.702Z,98375.31
2023-04-02T10:10:16.438Z,98378.63
2023-04-02T10:12:45.960Z,98376.06
2023-04-02T10:15:17.955Z,98379.00
2023-04-02T10:17:47.689Z,98382.31
2023-04-02T10:20:19.060Z,98378.53
2023-04-02T10:22:48.717Z,98386.59
2023-04-02T10:25:17.277Z,98382.16
2023-04-02T10:27:48.416Z,98383.31
2023-04-02T10:30:20.447Z,98383.91
2023-04-02T10:32:52.748Z,98386.88
2023-04-02T10:35:25.821Z,98380.38
2023-04-02T10:38:11.352Z,98377.56
2023-04-02T10:40:42.106Z,98377.88
2023-04-02T10:43:31.584Z,98372.56
2023-04-02T10:46:02.571Z,98369.94
2023-04-02T10:48:34.929Z,98374.69
2023-04-02T10:51:05.291Z,98368.88
2023-04-02T10:53:39.636Z,98374.53
2023-04-02T10:56:11.534Z,98378.72
2023-04-02T10:58:44.321Z,98364.59
2023-04-02T11:01:17.180Z,98380.91
2023-04-02T11:03:46.309Z,98380.31
2023-04-02T11:06:18.391Z,98384.91
2023-04-02T11:08:48.568Z,98376.72
2023-04-02T11:11:17.704Z,98363.34
2023-04-02T11:13:52.536Z,98371.81
2023-04-02T11:16:21.274Z,98379.81
2023-04-02T11:19:07.907Z,98379.31
2023-04-02T11:21:54.814Z,98378.06
2023-04-02T11:24:41.538Z,98386.69
2023-04-02T11:27:17.324Z,98385.63
2023-04-02T11:29:46.639Z,98384.59
2023-04-02T11:32:29.851Z,98386.03
2023-04-02T11:35:26.221Z,98378.25
2023-04-02T11:37:54.537Z,98379.03
2023-04-02T11:40:54.891Z,98383.03
2023-04-02T11:43:41.637Z,98384.72
2023-04-02T11:46:32.394Z,98374.25
2023-04-02T11:49:31.902Z,98371.06
2023-04-02T11:52:10.912Z,98371.28
2023-04-02T11:54:40.682Z,98378.88
2023-04-02T11:57:16.505Z,98388.84
2023-04-02T11:59:50.670Z,98385.69
2023-04-02T12:02:25.790Z,98385.38
2023-04-02T12:05:14.682Z,98381.84
2023-04-02T12:07:52.386Z,98380.06
2023-04-02T12:10:21.921Z,98382.59
2023-04-02T12:12:50.783Z,98377.53
2023-04-02T12:15:33.768Z,98383.56
2023-04-02T12:18:11.901Z,98379.16
2023-04-02T12:20:39.834Z,98379.88
2023-04-02T12:23:07.762Z,98387.63
2023-04-02T12:25:40.571Z,98382.22
2023-04-02T12:28:17.914Z,98394.63
2023-04-02T12:30:46.651Z,98392.72
2023-04-02T12:33:28.414Z,98397.88
2023-04-02T12:35:58.719Z,98397.59
2023-04-02T12:38:28.090Z,98398.84
2023-04-02T12:40:57.006Z,98392.94
2023-04-02T12:43:26.073Z,98391.13
2023-04-02T12:45:54.873Z,98393.41
2023-04-02T12:48:25.166Z,98394.78
2023-04-02T12:50:53.451Z,98396.38
2023-04-02T12:53:23.149Z,98395.69
2023-04-02T12:55:51.881Z,98397.78
2023-04-02T12:58:25.463Z,98391.81
2023-04-02T13:00:53.670Z,98394.13
2023-04-02T13:03:22.774Z,98394.81
2023-04-02T13:05:57.155Z,98399.34
2023-04-02T13:08:27.374Z,98401.97
2023-04-02T13:10:56.754Z,98404.94
2023-04-02T13:13:28.411Z,98401.22
2023-04-02T13:16:03.674Z,98399.22
2023-04-02T13:18:33.267Z,98397.84
2023-04-02T13:21:04.201Z,98400.56
2023-04-02T13:23:37.514Z,98399.97
2023-04-02T13:26:16.082Z,98405.97
2023-04-02T13:28:44.259Z,98393.00
2023-04-02T13:31:16.245Z,98394.44
2023-04-02T13:33:44.240Z,98402.06
2023-04-02T13:36:15.804Z,98393.63
2023-04-02T13:38:43.804Z,98391.09
2023-04-02T13:41:19.997Z,98398.06
2023-04-02T13:43:47.932Z,98402.63
2023-04-02T13:46:19.336Z,98401.91
2023-04-02T13:48:47.274Z,98390.81
2023-04-02T13:51:19.385Z,98406.81
2023-04-02T13:53:48.783Z,98396.94
2023-04-02T13:56:16.729Z,98399.13
2023-04-02T13:58:44.775Z,98397.25
2023-04-02T14:01:12.834Z,98393.75
2023-04-02T14:03:40.953Z,98407.84
2023-04-02T14:06:12.946Z,98403.44
2023-04-02T14:08:53.061Z,98399.47
2023-04-02T14:11:29.049Z,98397.53
2023-04-02T14:14:03.819Z,98399.13
2023-04-02T14:16:48.566Z,98398.78
2023-04-02T14:19:26.027Z,98399.59
2023-04-02T14:21:58.566Z,98397.38
2023-04-02T14:24:31.470Z,98394.84
2023-04-02T14:27:15.597Z,98393.56
2023-04-02T14:29:49.192Z,98396.81
2023-04-02T14:32:20.727Z,98391.63
2023-04-02T14:34:52.980Z,98403.09
2023-04-02T14:37:24.214Z,98387.84
2023-04-02T14:40:00.671Z,98384.72
2023-04-02T14:42:33.010Z,98401.81
2023-04-02T14:45:06.560Z,98394.38
2023-04-02T14:47:38.136Z,98390.91
2023-04-02T14:50:12.717Z,98385.16
2023-04-02T14:52:44.343Z,98388.47
2023-04-02T14:55:17.404Z,98384.81
2023-04-02T14:57:51.192Z,98401.56
2023-04-02T15:00:27.599Z,98397.03
2023-04-02T15:02:57.325Z,98396.38
2023-04-02T15:05:29.604Z,98394.00
2023-04-02T15:07:59.405Z,98397.59
2023-04-02T15:10:30.255Z,98393.78
2023-04-02T15:12:58.767Z,98393.44
2023-04-02T15:15:39.918Z,98396.34
2023-04-02T15:18:11.119Z,98394.22
2023-04-02T15:20:41.182Z,98390.91
2023-04-02T15:23:14.412Z,98392.09
2023-04-02T15:25:45.716Z,98387.78
2023-04-02T15:28:19.557Z,98395.50
2023-04-02T15:30:50.416Z,98395.84
2023-04-02T15:33:31.332Z,98395.94
2023-04-02T15:36:17.832Z,98399.81
2023-04-02T15:38:49.019Z,98394.19
2023-04-02T15:41:23.802Z,98397.84
2023-04-02T15:43:57.924Z,98396.47
2023-04-02T15:46:29.802Z,98400.13
2023-04-02T15:49:07.284Z,98401.22
2023-04-02T15:51:38.085Z,98397.56
2023-04-02T15:54:14.032Z,98401.41
2023-04-02T15:56:50.041Z,98412.56
2023-04-02T15:59:35.983Z,98409.59
2023-04-02T16:02:14.571Z,98406.63
2023-04-02T16:04:53.889Z,98419.47
2023-04-02T16:07:28.141Z,98414.72
2023-04-02T16:10:00.727Z,98415.81
2023-04-02T16:12:30.510Z,98426.00
2023-04-02T16:15:06.085Z,98420.31
2023-04-02T16:17:38.198Z,98431.53
2023-04-02T16:20:16.820Z,98422.78
2023-04-02T16:22:59.503Z,98432.09
2023-04-02T16:25:29.828Z,98436.81
2023-04-02T16:28:03.846Z,98438.75
2023-04-02T16:30:38.384Z,98443.97
2023-04-02T16:33:16.178Z,98442.75
2023-04-02T16:35:46.928Z,98444.59
2023-04-02T16:38:20.963Z,98440.47
2023-04-02T16:41:06.779Z,98441.63
2023-04-02T16:43:41.888Z,98454.13
2023-04-02T16:46:13.030Z,98447.94
2023-04-02T16:48:46.166Z,98452.69
2023-04-02T16:51:18.420Z,98456.41
2023-04-02T16:54:01.629Z,98465.41
2023-04-02T16:56:36.832Z,98465.41
2023-04-02T16:59:13.146Z,98453.38
2023-04-02T17:01:46.758Z,98458.41
2023-04-02T17:04:32.193Z,98453.59
2023-04-02T17:07:07.263Z,98462.75
2023-04-02T17:09:40.057Z,98464.78
2023-04-02T17:12:15.953Z,98457.44
2023-04-02T17:14:50.965Z,98461.06
2023-04-02T17:17:19.121Z,98458.13
2023-04-02T17:19:48.033Z,98464.41
2023-04-02T17:22:18.528Z,98456.75
2023-04-02T17:24:49.147Z,98464.41
2023-04-02T17:27:21.601Z,98465.72
2023-04-02T17:29:53.424Z,98469.47
2023-04-02T17:32:24.102Z,98467.59
2023-04-02T17:34:52.090Z,98474.28
2023-04-02T17:37:24.221Z,98469.53
2023-04-02T17:39:56.990Z,98471.41
2023-04-02T17:42:31.267Z,98466.00
2023-04-02T17:45:05.876Z,98469.38
2023-04-02T17:47:39.502Z,98472.03
2023-04-02T17:50:34.514Z,98476.25
2023-04-02T17:53:05.358Z,98474.47
2023-04-02T17:55:40.719Z,98475.56
2023-04-02T17:58:17.193Z,98486.41
2023-04-02T18:00:54.001Z,98480.00
2023-04-02T18:03:36.306Z,98483.16
2023-04-02T18:06:07.261Z,98482.38
2023-04-02T18:08:41.647Z,98487.50
2023-04-02T18:11:11.588Z,98491.88
2023-04-02T18:13:42.312Z,98492.00
2023-04-02T18:16:34.301Z,98497.31
2023-04-02T18:19:08.568Z,98492.81
2023-04-02T18:21:40.627Z,98491.22
2023-04-02T18:24:27.327Z,98491.31
2023-04-02T18:27:01.830Z,98496.63
2023-04-02T18:29:37.363Z,98495.63
2023-04-02T18:32:13.430Z,98494.53
2023-04-02T18:34:56.215Z,98492.19
2023-04-02T18:37:29.995Z,98500.66
2023-04-02T18:40:08.192Z,98506.34
2023-04-02T18:42:45.980Z,98495.94
2023-04-02T18:45:18.210Z,98494.06
2023-04-02T18:47:50.365Z,98501.16
2023-04-02T18:50:23.578Z,98501.97
2023-04-02T18:52:53.221Z,98498.22
2023-04-02T18:55:22.330Z,98495.84
2023-04-02T18:57:52.699Z,98507.28
2023-04-02T19:00:27.514Z,98506.78
2023-04-02T19:02:58.678Z,98501.25
2023-04-02T19:05:32.098Z,98501.31
2023-04-02T19:08:04.191Z,98510.41
2023-04-02T19:10:33.323Z,98508.97
2023-04-02T19:13:01.764Z,98515.09
2023-04-02T19:15:36.744Z,98515.88
2023-04-02T19:18:09.828Z,98504.69
2023-04-02T19:20:42.568Z,98515.59
2023-04-02T19:23:20.014Z,98512.94
2023-04-02T19:25:57.554Z,98511.38
2023-04-02T19:28:30.506Z,98509.22
2023-04-02T19:31:04.716Z,98516.13
2023-04-02T19:33:42.531Z,98519.63
2023-04-02T19:36:18.686Z,98517.75
2023-04-02T19:38:55.855Z,98512.16
2023-04-02T19:41:29.730Z,98511.56
2023-04-02T19:43:57.805Z,98515.53
2023-04-02T19:46:27.488Z,98506.25
2023-04-02T19:48:59.986Z,98507.91
2023-04-02T19:51:28.032Z,98494.22
2023-04-02T19:53:57.463Z,98518.91
2023-04-02T19:56:25.966Z,98515.72
2023-04-02T19:58:54.521Z,98517.63
2023-04-02T20:01:22.920Z,98523.22
2023-04-02T20:03:51.036Z,98527.81
2023-04-02T20:06:37.743Z,98522.81
2023-04-02T20:09:09.036Z,98531.44
2023-04-02T20:11:37.772Z,98531.03
2023-04-02T20:14:06.195Z,98523.28
2023-04-02T20:16:34.569Z,98522.69
2023-04-02T20:19:02.725Z,98526.13
2023-04-02T20:21:35.031Z,98527.72
2023-04-02T20:24:03.241Z,98531.44
2023-04-02T20:26:32.821Z,98529.88
2023-04-02T20:29:05.663Z,98534.66
2023-04-02T20:31:36.183Z,98540.28
2023-04-02T20:34:06.786Z,98534.16
2023-04-02T20:36:34.992Z,98528.63
2023-04-02T20:39:03.625Z,98545.72
2023-04-02T20:41:33.089Z,98537.00
2023-04-02T20:44:01.190Z,98540.28
2023-04-02T20:46:29.202Z,98533.72
2023-04-02T20:48:57.215Z,98541.75
2023-04-02T20:51:25.204Z,98540.97
2023-04-02T20:53:53.915Z,98534.69
2023-04-02T20:56:23.487Z,98534.50
2023-04-02T20:58:52.818Z,98535.31
2023-04-02T21:01:22.235Z,98528.72
2023-04-02T21:03:50.801Z,98543.34
